createdAt,value
2022-10-20T00:01:34.060Z,2.90
2022-10-20T00:04:36.882Z,2.88
2022-10-20T00:07:39.614Z,3.45
2022-10-20T00:11:00.530Z,2.73
2022-10-20T00:14:07.402Z,3.10
2022-10-20T00:17:16.489Z,2.70
2022-10-20T00:20:21.212Z,3.20
2022-10-20T00:23:24.459Z,2.83
2022-10-20T00:26:28.937Z,2.93
2022-10-20T00:29:31.778Z,3.27
2022-10-20T00:32:34.697Z,2.72
2022-10-20T00:35:39.528Z,3.00
2022-10-20T00:38:42.577Z,2.67
2022-10-20T00:41:45.286Z,2.87
2022-10-20T00:44:56.796Z,2.87
2022-10-20T00:48:04.992Z,3.08
2022-10-20T00:51:09.004Z,2.67
2022-10-20T00:54:17.143Z,2.65
2022-10-20T00:57:23.224Z,2.90
2022-10-20T01:00:27.541Z,3.10
2022-10-20T01:03:41.218Z,2.63
2022-10-20T01:06:44.067Z,2.83
2022-10-20T01:09:47.314Z,2.83
2022-10-20T01:12:57.519Z,2.67
2022-10-20T01:16:37.498Z,3.00
2022-10-20T01:20:07.902Z,3.08
2022-10-20T01:23:33.382Z,2.45
2022-10-20T01:27:13.254Z,3.00
2022-10-20T01:30:21.422Z,2.50
2022-10-20T01:33:48.039Z,2.70
2022-10-20T01:37:08.123Z,2.90
2022-10-20T01:40:34.375Z,2.60
2022-10-20T01:43:39.435Z,2.50
2022-10-20T01:46:43.576Z,2.90
2022-10-20T01:49:48.397Z,2.70
2022-10-20T01:52:55.659Z,2.72
2022-10-20T01:56:00.167Z,3.10
2022-10-20T01:59:17.499Z,2.72
2022-10-20T02:02:38.564Z,2.67
2022-10-20T02:06:13.784Z,2.80
2022-10-20T02:09:25.071Z,2.90
2022-10-20T02:12:36.254Z,2.50
2022-10-20T02:15:45.212Z,2.15
2022-10-20T02:18:48.837Z,2.27
2022-10-20T02:21:54.640Z,2.53
2022-10-20T02:24:57.363Z,2.45
2022-10-20T02:28:02.482Z,2.25
2022-10-20T02:31:05.881Z,2.25
2022-10-20T02:34:09.215Z,2.73
2022-10-20T02:37:12.283Z,2.70
2022-10-20T02:40:15.802Z,2.65
2022-10-20T02:43:18.519Z,2.72
2022-10-20T02:46:21.127Z,2.95
2022-10-20T02:49:25.283Z,2.50
2022-10-20T02:52:28.798Z,2.40
2022-10-20T02:55:31.664Z,2.33
2022-10-20T02:58:34.345Z,2.53
2022-10-20T03:01:37.248Z,2.63
2022-10-20T03:04:39.945Z,2.30
2022-10-20T03:07:43.040Z,2.40
2022-10-20T03:10:48.383Z,2.22
2022-10-20T03:13:51.144Z,2.60
2022-10-20T03:16:53.772Z,2.40
2022-10-20T03:19:56.460Z,2.40
2022-10-20T03:22:59.395Z,2.23
2022-10-20T03:26:07.211Z,3.08
2022-10-20T03:29:10.042Z,2.28
2022-10-20T03:32:12.679Z,2.40
2022-10-20T03:35:15.290Z,2.40
2022-10-20T03:38:18.032Z,2.63
2022-10-20T03:41:31.305Z,2.42
2022-10-20T03:44:34.067Z,2.60
2022-10-20T03:47:37.261Z,2.70
2022-10-20T03:50:43.264Z,2.20
2022-10-20T03:53:45.891Z,2.40
2022-10-20T03:56:51.637Z,2.40
2022-10-20T03:59:54.418Z,2.40
2022-10-20T04:02:57.140Z,2.05
2022-10-20T04:06:00.004Z,2.70
2022-10-20T04:09:03.038Z,2.70
2022-10-20T04:12:05.892Z,2.33
2022-10-20T04:15:09.572Z,2.35
2022-10-20T04:18:12.194Z,2.60
2022-10-20T04:21:17.665Z,2.00
2022-10-20T04:24:20.291Z,2.20
2022-10-20T04:27:23.411Z,2.38
2022-10-20T04:30:33.587Z,2.78
2022-10-20T04:33:36.377Z,2.40
2022-10-20T04:36:39.100Z,2.43
2022-10-20T04:40:01.651Z,2.17
2022-10-20T04:43:04.828Z,2.35
2022-10-20T04:46:08.649Z,2.33
2022-10-20T04:49:11.777Z,2.80
2022-10-20T04:52:14.800Z,2.60
2022-10-20T04:55:17.788Z,2.67
2022-10-20T04:58:20.526Z,1.92
2022-10-20T05:01:28.655Z,2.17
2022-10-20T05:04:31.857Z,2.53
2022-10-20T05:07:34.846Z,2.30
2022-10-20T05:10:42.407Z,2.13
2022-10-20T05:13:45.130Z,2.50
2022-10-20T05:16:47.904Z,2.28
2022-10-20T05:19:50.555Z,2.60
2022-10-20T05:22:53.391Z,2.53
2022-10-20T05:25:55.974Z,2.27
2022-10-20T05:28:58.810Z,3.33
2022-10-20T05:32:01.552Z,2.97
2022-10-20T05:35:04.555Z,2.17
2022-10-20T05:38:07.407Z,2.43
2022-10-20T05:41:17.918Z,2.30
2022-10-20T05:44:20.730Z,2.63
2022-10-20T05:47:26.318Z,2.80
2022-10-20T05:50:29.723Z,2.33
2022-10-20T05:53:32.461Z,2.60
2022-10-20T05:56:35.180Z,2.70
2022-10-20T05:59:38.012Z,2.92
2022-10-20T06:02:43.493Z,3.00
2022-10-20T06:05:46.124Z,2.30
2022-10-20T06:08:48.864Z,2.23
2022-10-20T06:15:16.161Z,2.65
2022-10-20T06:18:18.760Z,2.58
2022-10-20T06:21:25.337Z,3.15
2022-10-20T06:24:28.799Z,2.70
2022-10-20T06:27:31.905Z,2.77
2022-10-20T06:30:50.049Z,2.40
2022-10-20T06:33:53.977Z,2.75
2022-10-20T06:36:57.733Z,2.53
2022-10-20T06:40:01.610Z,2.90
2022-10-20T06:43:17.247Z,2.57
2022-10-20T06:46:55.577Z,2.60
2022-10-20T06:50:08.411Z,3.00
2022-10-20T06:53:14.472Z,2.70
2022-10-20T06:56:19.580Z,3.00
2022-10-20T06:59:22.264Z,2.80
2022-10-20T07:02:25.424Z,2.75
2022-10-20T07:05:28.319Z,2.88
2022-10-20T07:08:32.910Z,2.92
2022-10-20T07:11:36.573Z,2.67
2022-10-20T07:14:43.433Z,2.40
2022-10-20T07:17:49.484Z,3.05
2022-10-20T07:20:59.221Z,3.08
2022-10-20T07:24:03.368Z,3.45
2022-10-20T07:27:06.504Z,2.70
2022-10-20T07:30:09.842Z,3.27
2022-10-20T07:33:12.838Z,2.78
2022-10-20T07:36:18.510Z,2.85
2022-10-20T07:39:21.774Z,2.38
2022-10-20T07:42:28.933Z,2.50
2022-10-20T07:45:36.438Z,2.53
2022-10-20T07:48:39.430Z,2.45
2022-10-20T07:51:42.418Z,2.53
2022-10-20T07:54:45.546Z,2.55
2022-10-20T07:57:48.594Z,2.40
2022-10-20T08:00:56.913Z,2.50
2022-10-20T08:04:00.546Z,2.28
2022-10-20T08:07:03.504Z,2.50
2022-10-20T08:10:11.620Z,2.60
2022-10-20T08:13:17.581Z,2.43
2022-10-20T08:16:27.447Z,2.27
2022-10-20T08:19:43.852Z,2.08
2022-10-20T08:22:46.875Z,2.30
2022-10-20T08:25:56.426Z,2.20
2022-10-20T08:28:59.334Z,2.43
2022-10-20T08:32:05.460Z,2.03
2022-10-20T08:35:11.960Z,2.60
2022-10-20T08:38:14.680Z,2.17
2022-10-20T08:41:38.760Z,2.45
2022-10-20T08:44:58.512Z,2.23
2022-10-20T08:48:02.812Z,2.20
2022-10-20T08:51:06.374Z,2.70
2022-10-20T08:54:14.968Z,2.75
2022-10-20T08:57:29.578Z,1.73
2022-10-20T09:00:38.013Z,2.30
2022-10-20T09:03:42.871Z,1.87
2022-10-20T09:06:49.427Z,2.17
2022-10-20T09:10:03.663Z,1.90
2022-10-20T09:13:24.276Z,2.38
2022-10-20T09:16:58.569Z,2.00
2022-10-20T09:20:02.867Z,2.40
2022-10-20T09:23:16.530Z,1.85
2022-10-20T09:27:00.156Z,1.92
2022-10-20T09:30:17.018Z,2.10
2022-10-20T09:33:26.089Z,1.73
2022-10-20T09:37:00.821Z,2.53
2022-10-20T09:40:15.402Z,2.10
2022-10-20T09:43:18.810Z,1.83
2022-10-20T09:46:33.342Z,1.80
2022-10-20T09:50:07.497Z,1.53
2022-10-20T09:53:19.571Z,1.40
2022-10-20T09:56:52.937Z,1.58
2022-10-20T10:00:01.279Z,1.70
2022-10-20T10:03:22.652Z,1.50
2022-10-20T10:06:33.035Z,1.47
2022-10-20T10:09:40.422Z,1.40
2022-10-20T10:12:52.061Z,1.50
2022-10-20T10:16:10.097Z,1.42
2022-10-20T10:19:26.620Z,1.60
2022-10-20T10:22:30.204Z,1.80
2022-10-20T10:25:33.296Z,1.20
2022-10-20T10:28:44.395Z,1.25
2022-10-20T10:35:38.959Z,1.48
2022-10-20T10:38:42.214Z,1.40
2022-10-20T10:42:18.877Z,1.80
2022-10-20T10:45:31.929Z,1.52
2022-10-20T10:49:08.596Z,1.40
2022-10-20T10:52:17.895Z,1.65
2022-10-20T10:55:49.719Z,1.60
2022-10-20T10:59:02.353Z,1.30
2022-10-20T11:02:46.629Z,1.92
2022-10-20T11:06:17.294Z,1.45
2022-10-20T11:09:33.612Z,1.60
2022-10-20T11:12:42.814Z,1.47
2022-10-20T11:16:09.257Z,1.50
2022-10-20T11:20:06.007Z,1.45
2022-10-20T11:23:41.733Z,1.35
2022-10-20T11:26:52.496Z,1.40
2022-10-20T11:30:18.023Z,1.50
2022-10-20T11:33:43.896Z,1.30
2022-10-20T11:37:15.473Z,1.08
2022-10-20T11:40:32.230Z,1.85
2022-10-20T11:43:50.210Z,1.77
2022-10-20T11:47:06.057Z,1.57
2022-10-20T11:50:14.780Z,1.50
2022-10-20T11:53:47.555Z,2.08
2022-10-20T11:57:04.192Z,1.88
2022-10-20T12:00:35.118Z,1.83
2022-10-20T12:04:18.809Z,2.53
2022-10-20T12:08:24.606Z,2.37
2022-10-20T12:11:31.993Z,2.10
2022-10-20T12:14:43.877Z,2.08
2022-10-20T12:17:48.318Z,2.10
2022-10-20T12:21:07.421Z,1.63
2022-10-20T12:42:36.669Z,2.30
2022-10-20T12:45:43.215Z,2.08
2022-10-20T12:48:47.798Z,1.73
2022-10-20T12:51:56.175Z,2.00
2022-10-20T12:55:19.315Z,1.90
2022-10-20T12:58:22.514Z,2.20
2022-10-20T13:01:28.518Z,2.03
2022-10-20T13:04:58.298Z,1.67
2022-10-20T13:08:04.782Z,1.88
2022-10-20T13:11:41.715Z,1.73
2022-10-20T13:14:59.037Z,1.50
2022-10-20T13:18:02.304Z,1.55
2022-10-20T13:21:31.997Z,1.70
2022-10-20T13:24:44.797Z,1.48
2022-10-20T13:27:50.639Z,1.60
2022-10-20T13:31:13.103Z,1.70
2022-10-20T13:34:25.670Z,1.88
2022-10-20T13:37:40.138Z,1.70
2022-10-20T13:40:51.195Z,1.75
2022-10-20T13:44:04.248Z,1.87
2022-10-20T13:47:19.378Z,1.87
2022-10-20T13:50:28.191Z,1.80
2022-10-20T13:53:43.078Z,1.60
2022-10-20T13:56:48.485Z,2.00
2022-10-20T14:00:00.203Z,1.70
2022-10-20T14:03:15.038Z,1.77
2022-10-20T14:06:34.837Z,1.55
2022-10-20T14:09:40.590Z,1.35
2022-10-20T14:12:46.674Z,1.90
2022-10-20T14:15:55.733Z,1.37
2022-10-20T14:19:12.226Z,1.70
2022-10-20T14:22:23.283Z,1.58
2022-10-20T14:25:27.627Z,1.50
2022-10-20T14:28:33.435Z,1.70
2022-10-20T14:31:36.713Z,1.60
2022-10-20T14:35:04.424Z,1.90
2022-10-20T14:38:17.647Z,1.67
2022-10-20T14:41:28.899Z,2.15
2022-10-20T14:44:32.150Z,1.90
2022-10-20T14:47:40.670Z,1.63
2022-10-20T14:50:48.520Z,1.80
2022-10-20T14:53:51.198Z,1.80
2022-10-20T14:56:59.813Z,1.30
2022-10-20T15:00:29.131Z,1.80
2022-10-20T15:03:36.393Z,1.70
2022-10-20T15:06:39.090Z,1.67
2022-10-20T15:09:45.584Z,1.50
2022-10-20T15:12:50.712Z,1.88
2022-10-20T15:15:54.016Z,1.67
2022-10-20T15:19:24.665Z,1.37
2022-10-20T15:22:27.455Z,1.77
2022-10-20T15:25:36.299Z,1.63
2022-10-20T15:28:47.282Z,1.30
2022-10-20T15:31:50.032Z,1.60
2022-10-20T15:34:52.708Z,1.47
2022-10-20T15:37:56.495Z,1.40
2022-10-20T15:41:02.549Z,1.63
2022-10-20T15:44:12.380Z,1.73
2022-10-20T15:47:15.059Z,1.60
2022-10-20T15:50:25.599Z,1.73
2022-10-20T15:53:34.904Z,1.50
2022-10-20T15:56:38.299Z,1.70
2022-10-20T15:59:42.031Z,1.77
2022-10-20T16:02:45.684Z,1.85
2022-10-20T16:05:52.151Z,1.80
2022-10-20T16:08:57.209Z,1.50
2022-10-20T16:12:07.386Z,1.55
2022-10-20T16:15:31.554Z,1.52
2022-10-20T16:18:54.621Z,1.88
2022-10-20T16:22:17.575Z,1.67
2022-10-20T16:25:43.870Z,2.10
2022-10-20T16:29:07.335Z,1.80
2022-10-20T16:32:35.346Z,2.40
2022-10-20T16:35:45.989Z,2.25
2022-10-20T16:38:55.765Z,3.50
2022-10-20T16:41:59.273Z,2.93
2022-10-20T16:45:02.911Z,2.90
2022-10-20T16:48:07.407Z,3.60
2022-10-20T16:51:11.864Z,2.85
2022-10-20T16:54:17.128Z,3.23
2022-10-20T16:57:21.628Z,3.67
2022-10-20T17:00:27.548Z,3.17
2022-10-20T17:03:31.792Z,3.25
2022-10-20T17:06:36.967Z,3.10
2022-10-20T17:09:40.983Z,3.60
2022-10-20T17:16:11.176Z,2.70
2022-10-20T17:19:15.150Z,3.10
2022-10-20T17:22:19.596Z,3.83
2022-10-20T17:25:25.213Z,3.20
2022-10-20T17:28:33.027Z,3.80
2022-10-20T17:31:38.524Z,3.30
2022-10-20T17:34:45.338Z,4.35
2022-10-20T17:37:49.002Z,3.80
2022-10-20T17:40:53.806Z,3.33
2022-10-20T17:44:00.347Z,3.77
2022-10-20T17:47:04.903Z,3.95
2022-10-20T17:50:09.840Z,3.40
2022-10-20T17:53:19.249Z,3.42
2022-10-20T17:56:33.834Z,3.27
2022-10-20T17:59:52.096Z,3.87
2022-10-20T18:03:01.488Z,3.47
2022-10-20T18:06:20.908Z,3.42
2022-10-20T18:09:24.794Z,3.78
2022-10-20T18:12:28.492Z,3.53
2022-10-20T18:15:33.352Z,3.53
2022-10-20T18:18:40.388Z,4.05
2022-10-20T18:21:44.636Z,3.88
2022-10-20T18:24:49.824Z,4.15
2022-10-20T18:27:57.122Z,4.23
2022-10-20T18:31:06.667Z,4.00
2022-10-20T18:34:17.741Z,4.15
2022-10-20T18:37:23.152Z,3.72
2022-10-20T18:40:30.238Z,3.97
2022-10-20T18:43:35.186Z,4.53
2022-10-20T18:46:40.516Z,4.63
2022-10-20T18:49:44.790Z,4.65
2022-10-20T18:52:55.031Z,4.20
2022-10-20T18:56:05.641Z,4.70
2022-10-20T18:59:17.961Z,4.43
2022-10-20T19:02:21.875Z,3.57
2022-10-20T19:05:37.275Z,5.00
2022-10-20T19:08:42.267Z,4.47
2022-10-20T19:11:53.788Z,4.68
2022-10-20T19:14:58.941Z,3.83
2022-10-20T19:18:08.026Z,4.00
2022-10-20T19:21:12.284Z,4.20
2022-10-20T19:24:22.748Z,4.53
2022-10-20T19:27:27.409Z,4.85
2022-10-20T19:30:36.229Z,4.07
2022-10-20T19:33:41.094Z,4.00
2022-10-20T19:36:49.156Z,4.43
2022-10-20T19:39:54.060Z,4.65
2022-10-20T19:42:58.801Z,4.03
2022-10-20T19:46:04.640Z,3.93
2022-10-20T19:49:09.840Z,4.23
2022-10-20T19:52:15.653Z,4.53
2022-10-20T19:55:19.386Z,4.35
2022-10-20T19:58:23.839Z,4.10
2022-10-20T20:01:28.139Z,4.20
2022-10-20T20:04:39.775Z,4.10
2022-10-20T20:07:46.303Z,3.88
2022-10-20T20:10:55.605Z,4.30
2022-10-20T20:14:06.787Z,4.53
2022-10-20T20:17:13.850Z,3.97
2022-10-20T20:20:21.236Z,4.37
2022-10-20T20:23:47.543Z,3.83
2022-10-20T20:27:05.017Z,4.15
2022-10-20T20:30:08.858Z,4.80
2022-10-20T20:33:11.694Z,3.90
2022-10-20T20:36:14.719Z,4.47
2022-10-20T20:39:17.691Z,4.05
2022-10-20T20:42:20.602Z,3.92
2022-10-20T20:45:26.357Z,4.65
2022-10-20T20:48:29.075Z,3.67
2022-10-20T20:51:34.060Z,4.53
2022-10-20T20:54:36.955Z,4.25
2022-10-20T20:57:40.111Z,4.10
2022-10-20T21:00:43.031Z,4.32
2022-10-20T21:03:56.101Z,3.70
2022-10-20T21:07:12.739Z,4.30
2022-10-20T21:10:15.295Z,4.43
2022-10-20T21:13:18.040Z,4.35
2022-10-20T21:16:28.177Z,4.22
2022-10-20T21:19:30.938Z,4.57
2022-10-20T21:22:33.628Z,4.33
2022-10-20T21:25:36.277Z,4.40
2022-10-20T21:28:39.419Z,4.25
2022-10-20T21:31:42.196Z,5.05
2022-10-20T21:34:44.843Z,4.17
2022-10-20T21:37:47.605Z,4.30
2022-10-20T21:40:50.337Z,4.40
2022-10-20T21:43:55.533Z,4.47
2022-10-20T21:46:58.255Z,4.10
2022-10-20T21:50:00.948Z,4.37
2022-10-20T21:53:03.602Z,4.00
2022-10-20T21:56:07.752Z,4.13
2022-10-20T21:59:19.468Z,4.30
2022-10-20T22:02:22.133Z,3.92
2022-10-20T22:05:24.714Z,3.87
2022-10-20T22:08:27.453Z,4.37
2022-10-20T22:11:34.067Z,4.15
2022-10-20T22:14:36.805Z,4.10
2022-10-20T22:17:39.696Z,3.90
2022-10-20T22:20:45.364Z,4.17
2022-10-20T22:23:48.248Z,3.93
2022-10-20T22:26:52.405Z,4.20
2022-10-20T22:29:57.479Z,4.07
2022-10-20T22:33:00.983Z,4.00
2022-10-20T22:36:05.037Z,3.63
2022-10-20T22:39:08.848Z,3.53
2022-10-20T22:42:15.508Z,3.65
2022-10-20T22:45:26.856Z,4.00
2022-10-20T22:48:30.695Z,4.00
2022-10-20T22:51:34.104Z,4.00
2022-10-20T22:54:36.945Z,3.90
2022-10-20T22:57:39.649Z,3.90
2022-10-20T23:00:46.455Z,3.63
2022-10-20T23:03:49.694Z,4.10
2022-10-20T23:06:55.198Z,4.13
2022-10-20T23:10:01.143Z,3.87
2022-10-20T23:13:10.650Z,4.13
2022-10-20T23:16:15.077Z,4.40
2022-10-20T23:19:20.598Z,4.03
2022-10-20T23:22:23.357Z,3.80
2022-10-20T23:25:26.070Z,4.20
2022-10-20T23:28:29.003Z,4.10
2022-10-20T23:31:35.231Z,4.15
2022-10-20T23:34:37.967Z,4.22
2022-10-20T23:37:45.809Z,3.73
2022-10-20T23:40:48.480Z,3.97
2022-10-20T23:43:54.134Z,3.67
2022-10-20T23:46:56.861Z,4.03
2022-10-20T23:49:59.721Z,4.32
2022-10-20T23:53:02.580Z,3.70
2022-10-20T23:56:05.449Z,4.30
2022-10-20T23:59:08.095Z,3.88
